createdAt,value
2017-10-28T00:00:59.750Z,97.1
2017-10-28T00:02:01.298Z,97.2
2017-10-28T00:03:02.986Z,97.2
2017-10-28T00:04:04.547Z,97.1
2017-10-28T00:05:06.172Z,96.7
2017-10-28T00:06:07.699Z,96.5
2017-10-28T00:07:10.218Z,96.2
2017-10-28T00:08:11.726Z,96.5
2017-10-28T00:09:13.377Z,96.7
2017-10-28T00:10:14.892Z,96.6
2017-10-28T00:11:16.491Z,97.1
2017-10-28T00:12:18.041Z,96.9
2017-10-28T00:13:19.619Z,97.0
2017-10-28T00:14:21.117Z,97.1
2017-10-28T00:15:22.697Z,97.3
2017-10-28T00:16:24.447Z,97.2
2017-10-28T00:17:26.096Z,96.8
2017-10-28T00:18:27.610Z,96.2
2017-10-28T00:19:29.170Z,96.8
2017-10-28T00:20:30.710Z,96.1
2017-10-28T00:21:32.239Z,97.7
2017-10-28T00:22:33.814Z,96.9
2017-10-28T00:23:35.419Z,96.8
2017-10-28T00:24:36.904Z,97.1
2017-10-28T00:25:38.491Z,97.0
2017-10-28T00:26:40.034Z,96.9
2017-10-28T00:27:41.647Z,97.0
2017-10-28T00:28:43.165Z,96.6
2017-10-28T00:29:44.780Z,96.9
2017-10-28T00:30:46.253Z,97.5
2017-10-28T00:31:47.862Z,97.7
2017-10-28T00:32:49.389Z,97.7
2017-10-28T00:33:50.941Z,97.8
2017-10-28T00:34:52.466Z,97.8
2017-10-28T00:35:54.037Z,98.1
2017-10-28T00:36:55.580Z,97.5
2017-10-28T00:37:57.155Z,97.2
2017-10-28T00:38:58.661Z,97.8
2017-10-28T00:40:00.213Z,97.8
2017-10-28T00:41:01.786Z,97.4
2017-10-28T00:42:03.469Z,97.5
2017-10-28T00:43:05.049Z,97.6
2017-10-28T00:44:06.597Z,97.3
2017-10-28T00:45:08.141Z,97.8
2017-10-28T00:46:09.799Z,97.5
2017-10-28T00:47:11.307Z,97.7
2017-10-28T00:48:12.922Z,97.3
2017-10-28T00:49:14.452Z,98.5
2017-10-28T00:50:16.116Z,98.7
2017-10-28T00:51:17.663Z,99.1
2017-10-28T00:52:19.304Z,99.1
2017-10-28T00:53:20.796Z,99.0
2017-10-28T00:54:22.424Z,99.2
2017-10-28T00:55:23.937Z,98.9
2017-10-28T00:56:25.569Z,99.2
2017-10-28T00:57:27.049Z,98.9
2017-10-28T00:58:29.688Z,98.9
2017-10-28T00:59:31.186Z,98.6
2017-10-28T01:00:33.788Z,98.2
2017-10-28T01:01:35.296Z,98.6
2017-10-28T01:02:41.855Z,99.1
2017-10-28T01:03:43.392Z,99.6
2017-10-28T01:04:47.094Z,99.6
2017-10-28T01:05:48.616Z,100.0
2017-10-28T01:06:50.318Z,99.1
2017-10-28T01:07:51.823Z,99.4
2017-10-28T01:08:53.519Z,100.0
2017-10-28T01:09:55.012Z,99.7
2017-10-28T01:10:56.659Z,99.4
2017-10-28T01:11:58.190Z,100.0
2017-10-28T01:12:59.878Z,100.0
2017-10-28T01:14:01.434Z,100.0
2017-10-28T01:15:03.012Z,100.0
2017-10-28T01:16:04.639Z,100.0
2017-10-28T01:17:06.252Z,99.9
2017-10-28T01:18:07.776Z,99.5
2017-10-28T01:19:09.398Z,100.0
2017-10-28T01:20:10.897Z,100.0
2017-10-28T01:21:12.595Z,100.0
2017-10-28T01:22:14.116Z,100.0
2017-10-28T01:23:15.757Z,100.0
2017-10-28T01:24:17.297Z,99.9
2017-10-28T01:25:18.968Z,100.0
2017-10-28T01:26:20.554Z,100.0
2017-10-28T01:27:22.225Z,100.0
2017-10-28T01:28:23.774Z,100.0
2017-10-28T01:29:25.328Z,100.0
2017-10-28T01:30:26.860Z,100.0
2017-10-28T01:31:28.468Z,100.0
2017-10-28T01:32:30.180Z,100.0
2017-10-28T01:33:31.709Z,100.0
2017-10-28T01:34:33.317Z,100.0
2017-10-28T01:35:34.896Z,100.0
2017-10-28T01:36:36.462Z,100.0
2017-10-28T01:37:38.134Z,100.0
2017-10-28T01:38:39.635Z,100.0
2017-10-28T01:39:41.303Z,99.9
2017-10-28T01:40:42.789Z,100.0
2017-10-28T01:41:44.359Z,100.0
2017-10-28T01:42:45.956Z,100.0
2017-10-28T01:43:47.513Z,100.0
2017-10-28T01:44:49.075Z,100.0
2017-10-28T01:45:52.673Z,100.0
2017-10-28T01:46:54.228Z,100.0
2017-10-28T01:48:02.798Z,100.0
2017-10-28T01:49:04.420Z,99.9
2017-10-28T01:50:06.042Z,100.0
2017-10-28T01:51:07.572Z,100.0
2017-10-28T01:52:19.792Z,100.0
2017-10-28T01:53:21.277Z,100.0
2017-10-28T01:54:27.660Z,100.0
2017-10-28T01:55:29.231Z,100.0
2017-10-28T01:56:30.835Z,100.0
2017-10-28T01:57:32.357Z,100.0
2017-10-28T01:58:33.931Z,99.6
2017-10-28T01:59:35.489Z,99.8
2017-10-28T02:00:37.089Z,99.4
2017-10-28T02:01:38.627Z,99.9
2017-10-28T02:02:41.343Z,100.0
2017-10-28T02:03:42.855Z,99.2
2017-10-28T02:04:44.597Z,99.5
2017-10-28T02:05:46.100Z,100.0
2017-10-28T02:06:48.801Z,100.0
2017-10-28T02:07:50.395Z,99.9
2017-10-28T02:08:52.178Z,99.7
2017-10-28T02:09:53.794Z,100.0
2017-10-28T02:10:55.375Z,99.2
2017-10-28T02:11:56.930Z,99.6
2017-10-28T02:12:58.542Z,99.5
2017-10-28T02:14:00.070Z,100.0
2017-10-28T02:15:01.680Z,100.0
2017-10-28T02:16:03.249Z,100.0
2017-10-28T02:17:05.020Z,99.5
2017-10-28T02:18:06.657Z,100.0
2017-10-28T02:19:08.394Z,99.4
2017-10-28T02:20:09.950Z,100.0
2017-10-28T02:21:11.591Z,100.0
2017-10-28T02:22:13.482Z,100.0
2017-10-28T02:23:17.139Z,100.0
2017-10-28T02:24:18.667Z,100.0
2017-10-28T02:25:20.328Z,100.0
2017-10-28T02:26:21.790Z,100.0
2017-10-28T02:27:23.456Z,100.0
2017-10-28T02:28:24.949Z,100.0
2017-10-28T02:29:26.450Z,100.0
2017-10-28T02:30:28.195Z,100.0
2017-10-28T02:31:29.668Z,100.0
2017-10-28T02:32:31.264Z,100.0
2017-10-28T02:33:32.816Z,100.0
2017-10-28T02:34:34.602Z,100.0
2017-10-28T02:35:36.066Z,100.0
2017-10-28T02:36:37.751Z,100.0
2017-10-28T02:37:39.328Z,100.0
2017-10-28T02:38:40.999Z,100.0
2017-10-28T02:39:42.521Z,100.0
2017-10-28T02:40:44.084Z,100.0
2017-10-28T02:41:45.614Z,100.0
2017-10-28T02:42:47.284Z,100.0
2017-10-28T02:43:48.804Z,100.0
2017-10-28T02:44:50.482Z,100.0
2017-10-28T02:45:51.990Z,100.0
2017-10-28T02:46:53.673Z,100.0
2017-10-28T02:47:55.219Z,100.0
2017-10-28T02:48:56.912Z,100.0
2017-10-28T02:49:58.408Z,100.0
2017-10-28T02:51:00.050Z,100.0
2017-10-28T02:52:01.557Z,100.0
2017-10-28T02:53:03.223Z,100.0
2017-10-28T02:54:04.773Z,100.0
2017-10-28T02:55:06.310Z,100.0
2017-10-28T02:56:07.858Z,100.0
2017-10-28T02:57:09.539Z,100.0
2017-10-28T02:58:11.065Z,100.0
2017-10-28T02:59:13.049Z,100.0
2017-10-28T03:00:14.556Z,100.0
2017-10-28T03:01:16.260Z,100.0
2017-10-28T03:02:17.746Z,100.0
2017-10-28T03:03:19.456Z,100.0
2017-10-28T03:04:21.002Z,100.0
2017-10-28T03:05:22.657Z,100.0
2017-10-28T03:06:24.166Z,100.0
2017-10-28T03:07:25.843Z,100.0
2017-10-28T03:08:27.362Z,100.0
2017-10-28T03:09:30.023Z,100.0
2017-10-28T03:10:31.525Z,100.0
2017-10-28T03:11:33.305Z,100.0
2017-10-28T03:12:34.848Z,100.0
2017-10-28T03:13:36.518Z,100.0
2017-10-28T03:14:38.044Z,100.0
2017-10-28T03:15:39.751Z,100.0
2017-10-28T03:16:41.261Z,100.0
2017-10-28T03:17:42.972Z,100.0
2017-10-28T03:18:44.449Z,100.0
2017-10-28T03:19:46.115Z,100.0
2017-10-28T03:20:47.603Z,100.0
2017-10-28T03:21:49.288Z,100.0
2017-10-28T03:22:50.784Z,100.0
2017-10-28T03:23:52.510Z,100.0
2017-10-28T03:24:53.950Z,100.0
2017-10-28T03:25:55.621Z,100.0
2017-10-28T03:26:57.138Z,100.0
2017-10-28T03:27:58.853Z,100.0
2017-10-28T03:29:00.436Z,100.0
2017-10-28T03:30:02.160Z,100.0
2017-10-28T03:31:03.737Z,100.0
2017-10-28T03:32:05.435Z,100.0
2017-10-28T03:33:07.001Z,100.0
2017-10-28T03:34:08.687Z,100.0
2017-10-28T03:35:10.231Z,100.0
2017-10-28T03:36:11.735Z,100.0
2017-10-28T03:37:13.417Z,100.0
2017-10-28T03:38:14.903Z,100.0
2017-10-28T03:39:16.617Z,100.0
2017-10-28T03:40:18.177Z,100.0
2017-10-28T03:41:19.850Z,100.0
2017-10-28T03:42:21.366Z,100.0
2017-10-28T03:43:23.028Z,100.0
2017-10-28T03:44:24.560Z,100.0
2017-10-28T03:45:26.080Z,100.0
2017-10-28T03:46:27.640Z,100.0
2017-10-28T03:47:29.178Z,100.0
2017-10-28T03:48:31.910Z,100.0
2017-10-28T03:49:33.417Z,100.0
2017-10-28T03:50:35.265Z,100.0
2017-10-28T03:51:36.745Z,100.0
2017-10-28T03:52:38.406Z,100.0
2017-10-28T03:53:39.961Z,100.0
2017-10-28T03:54:41.649Z,100.0
2017-10-28T03:55:43.161Z,100.0
2017-10-28T03:56:44.783Z,100.0
2017-10-28T03:57:46.298Z,100.0
2017-10-28T03:58:49.815Z,100.0
2017-10-28T03:59:51.313Z,100.0
2017-10-28T04:00:54.949Z,100.0
2017-10-28T04:01:56.419Z,100.0
2017-10-28T04:02:58.051Z,100.0
2017-10-28T04:03:59.594Z,100.0
2017-10-28T04:05:02.270Z,100.0
2017-10-28T04:06:03.781Z,100.0
2017-10-28T04:07:05.512Z,100.0
2017-10-28T04:08:07.126Z,100.0
2017-10-28T04:09:08.827Z,100.0
2017-10-28T04:10:10.372Z,100.0
2017-10-28T04:11:12.014Z,100.0
2017-10-28T04:12:13.534Z,100.0
2017-10-28T04:13:15.236Z,100.0
2017-10-28T04:14:16.756Z,100.0
2017-10-28T04:15:18.410Z,100.0
2017-10-28T04:16:19.910Z,100.0
2017-10-28T04:17:21.629Z,100.0
2017-10-28T04:18:23.134Z,100.0
2017-10-28T04:19:24.797Z,100.0
2017-10-28T04:20:26.309Z,100.0
2017-10-28T04:21:27.944Z,100.0
2017-10-28T04:22:29.462Z,100.0
2017-10-28T04:23:31.145Z,100.0
2017-10-28T04:24:32.700Z,100.0
2017-10-28T04:25:34.426Z,100.0
2017-10-28T04:26:35.948Z,100.0
2017-10-28T04:27:37.661Z,100.0
2017-10-28T04:28:39.156Z,100.0
2017-10-28T04:29:40.845Z,100.0
2017-10-28T04:30:42.349Z,100.0
2017-10-28T04:31:44.025Z,100.0
2017-10-28T04:32:45.527Z,100.0
2017-10-28T04:33:47.202Z,100.0
2017-10-28T04:34:48.703Z,100.0
2017-10-28T04:35:50.417Z,100.0
2017-10-28T04:36:51.915Z,100.0
2017-10-28T04:37:53.588Z,100.0
2017-10-28T04:38:55.110Z,100.0
2017-10-28T04:39:56.762Z,100.0
2017-10-28T04:40:58.293Z,100.0
2017-10-28T04:41:59.952Z,100.0
2017-10-28T04:43:01.451Z,100.0
2017-10-28T04:44:03.222Z,100.0
2017-10-28T04:45:05.159Z,100.0
2017-10-28T04:46:06.796Z,100.0
2017-10-28T04:47:08.295Z,100.0
2017-10-28T04:48:10.004Z,100.0
2017-10-28T04:49:11.553Z,100.0
2017-10-28T04:50:13.548Z,100.0
2017-10-28T04:51:15.045Z,100.0
2017-10-28T04:52:16.699Z,100.0
2017-10-28T04:53:18.302Z,100.0
2017-10-28T04:54:20.061Z,100.0
2017-10-28T04:55:21.558Z,100.0
2017-10-28T04:56:23.287Z,100.0
2017-10-28T04:57:24.801Z,100.0
2017-10-28T04:58:26.453Z,100.0
2017-10-28T04:59:27.931Z,100.0
2017-10-28T05:00:29.712Z,100.0
2017-10-28T05:01:31.211Z,100.0
2017-10-28T05:02:33.053Z,100.0
2017-10-28T05:03:34.571Z,100.0
2017-10-28T05:04:36.221Z,100.0
2017-10-28T05:05:37.703Z,100.0
2017-10-28T05:06:39.420Z,100.0
2017-10-28T05:07:41.091Z,100.0
2017-10-28T05:08:42.792Z,100.0
2017-10-28T05:09:44.339Z,100.0
2017-10-28T05:10:45.988Z,100.0
2017-10-28T05:11:47.475Z,100.0
2017-10-28T05:12:49.197Z,100.0
2017-10-28T05:13:50.700Z,100.0
2017-10-28T05:14:52.403Z,100.0
2017-10-28T05:15:53.926Z,100.0
2017-10-28T05:16:55.563Z,100.0
2017-10-28T05:17:57.076Z,100.0
2017-10-28T05:18:58.732Z,100.0
2017-10-28T05:20:00.258Z,100.0
2017-10-28T05:21:01.921Z,100.0
2017-10-28T05:22:03.468Z,100.0
2017-10-28T05:23:05.001Z,100.0
2017-10-28T05:24:06.668Z,100.0
2017-10-28T05:25:08.201Z,100.0
2017-10-28T05:26:09.826Z,100.0
2017-10-28T05:27:11.611Z,100.0
2017-10-28T05:28:13.269Z,100.0
2017-10-28T05:29:14.760Z,100.0
2017-10-28T05:30:16.481Z,100.0
2017-10-28T05:31:17.938Z,100.0
2017-10-28T05:32:19.640Z,100.0
2017-10-28T05:33:21.165Z,100.0
2017-10-28T05:34:22.792Z,100.0
2017-10-28T05:35:24.316Z,100.0
2017-10-28T05:36:26.022Z,100.0
2017-10-28T05:37:27.494Z,100.0
2017-10-28T05:38:29.190Z,100.0
2017-10-28T05:39:30.710Z,100.0
2017-10-28T05:40:32.269Z,100.0
2017-10-28T05:41:33.854Z,100.0
2017-10-28T05:42:35.589Z,100.0
2017-10-28T05:43:37.095Z,100.0
2017-10-28T05:44:38.785Z,100.0
2017-10-28T05:45:40.387Z,100.0
2017-10-28T05:46:42.142Z,100.0
2017-10-28T05:47:43.705Z,100.0
2017-10-28T05:48:45.341Z,100.0
2017-10-28T05:49:46.833Z,100.0
2017-10-28T05:50:48.640Z,100.0
2017-10-28T05:51:50.076Z,100.0
2017-10-28T05:52:52.091Z,100.0
2017-10-28T05:53:53.605Z,100.0
2017-10-28T05:54:55.165Z,100.0
2017-10-28T05:55:56.705Z,100.0
2017-10-28T05:56:58.384Z,100.0
2017-10-28T05:57:59.881Z,100.0
2017-10-28T05:59:01.540Z,100.0
2017-10-28T06:00:03.110Z,100.0
2017-10-28T06:01:04.799Z,100.0
2017-10-28T06:02:06.408Z,100.0
2017-10-28T06:03:07.912Z,100.0
2017-10-28T06:04:09.411Z,100.0
2017-10-28T06:05:11.030Z,100.0
2017-10-28T06:06:12.537Z,100.0
2017-10-28T06:07:14.198Z,100.0
2017-10-28T06:08:15.712Z,100.0
2017-10-28T06:09:17.366Z,100.0
2017-10-28T06:10:18.871Z,100.0
2017-10-28T06:11:20.617Z,100.0
2017-10-28T06:12:22.126Z,100.0
2017-10-28T06:13:23.793Z,100.0
2017-10-28T06:14:25.334Z,100.0
2017-10-28T06:15:27.996Z,100.0
2017-10-28T06:16:29.545Z,100.0
2017-10-28T06:17:32.238Z,100.0
2017-10-28T06:18:33.750Z,100.0
2017-10-28T06:19:35.406Z,100.0
2017-10-28T06:20:36.930Z,100.0
2017-10-28T06:21:38.589Z,100.0
2017-10-28T06:22:40.084Z,100.0
2017-10-28T06:23:41.768Z,100.0
2017-10-28T06:24:43.404Z,100.0
2017-10-28T06:25:45.080Z,100.0
2017-10-28T06:26:46.639Z,100.0
2017-10-28T06:27:48.369Z,100.0
2017-10-28T06:28:50.065Z,100.0
2017-10-28T06:29:51.779Z,100.0
2017-10-28T06:30:53.385Z,100.0
2017-10-28T06:31:54.979Z,100.0
2017-10-28T06:32:56.478Z,100.0
2017-10-28T06:33:58.190Z,100.0
2017-10-28T06:34:59.772Z,100.0
2017-10-28T06:36:01.436Z,100.0
2017-10-28T06:37:03.030Z,100.0
2017-10-28T06:38:05.688Z,100.0
2017-10-28T06:39:07.335Z,100.0
2017-10-28T06:40:08.954Z,100.0
2017-10-28T06:41:10.478Z,100.0
2017-10-28T06:42:12.171Z,100.0
2017-10-28T06:43:13.740Z,100.0
2017-10-28T06:44:15.356Z,100.0
2017-10-28T06:45:16.870Z,100.0
2017-10-28T06:46:18.587Z,100.0
2017-10-28T06:47:20.113Z,100.0
2017-10-28T06:48:21.640Z,100.0
2017-10-28T06:49:23.145Z,100.0
2017-10-28T06:50:24.874Z,100.0
2017-10-28T06:51:26.401Z,100.0
2017-10-28T06:52:28.289Z,100.0
2017-10-28T06:53:29.738Z,100.0
2017-10-28T06:54:31.509Z,100.0
2017-10-28T06:55:33.183Z,100.0
2017-10-28T06:56:35.828Z,100.0
2017-10-28T06:57:37.407Z,100.0
2017-10-28T06:58:45.867Z,100.0
2017-10-28T06:59:47.519Z,100.0
2017-10-28T07:00:51.242Z,100.0
2017-10-28T07:01:52.851Z,100.0
2017-10-28T07:02:54.483Z,100.0
2017-10-28T07:03:56.075Z,100.0
2017-10-28T07:04:57.773Z,100.0
2017-10-28T07:05:59.349Z,100.0
2017-10-28T07:07:00.952Z,100.0
2017-10-28T07:08:02.639Z,100.0
2017-10-28T07:09:04.488Z,100.0
2017-10-28T07:10:06.265Z,100.0
2017-10-28T07:11:10.198Z,100.0
2017-10-28T07:12:11.681Z,100.0
2017-10-28T07:13:13.348Z,100.0
2017-10-28T07:14:14.923Z,100.0
2017-10-28T07:15:16.592Z,100.0
2017-10-28T07:16:18.138Z,100.0
2017-10-28T07:17:20.945Z,100.0
2017-10-28T07:18:22.642Z,100.0
2017-10-28T07:19:24.318Z,100.0
2017-10-28T07:20:25.896Z,100.0
2017-10-28T07:21:27.553Z,100.0
2017-10-28T07:22:29.069Z,100.0
2017-10-28T07:23:31.726Z,100.0
2017-10-28T07:24:33.436Z,100.0
2017-10-28T07:25:35.334Z,100.0
2017-10-28T07:26:36.951Z,100.0
2017-10-28T07:27:38.524Z,100.0
2017-10-28T07:28:40.009Z,100.0
2017-10-28T07:29:41.534Z,100.0
2017-10-28T07:30:43.038Z,100.0
2017-10-28T07:31:44.692Z,99.4
2017-10-28T07:32:46.364Z,99.5
2017-10-28T07:33:48.027Z,99.4
2017-10-28T07:34:49.502Z,99.1
2017-10-28T07:35:51.948Z,98.9
2017-10-28T07:36:53.548Z,99.5
2017-10-28T07:37:56.360Z,99.1
2017-10-28T07:38:57.986Z,98.2
2017-10-28T07:39:59.819Z,97.5
2017-10-28T07:41:01.452Z,97.3
2017-10-28T07:42:03.225Z,97.0
2017-10-28T07:43:04.815Z,96.3
2017-10-28T07:44:06.574Z,95.9
2017-10-28T07:45:08.103Z,96.0
2017-10-28T07:46:09.937Z,96.6
2017-10-28T07:47:11.630Z,97.2
2017-10-28T07:48:13.327Z,96.7
2017-10-28T07:49:14.939Z,96.6
2017-10-28T07:50:16.667Z,97.1
2017-10-28T07:51:18.256Z,96.6
2017-10-28T07:52:19.906Z,96.8
2017-10-28T07:53:21.848Z,97.4
2017-10-28T07:54:23.533Z,97.6
2017-10-28T07:55:25.217Z,97.4
2017-10-28T07:56:26.821Z,97.8
2017-10-28T07:57:28.441Z,97.4
2017-10-28T07:58:29.956Z,98.3
2017-10-28T07:59:31.607Z,98.3
2017-10-28T08:00:33.255Z,97.6
2017-10-28T08:01:34.942Z,97.5
2017-10-28T08:02:36.537Z,97.5
2017-10-28T08:03:38.110Z,97.5
2017-10-28T08:04:39.683Z,98.3
2017-10-28T08:05:41.335Z,98.0
2017-10-28T08:06:42.872Z,98.6
2017-10-28T08:07:44.427Z,97.9
2017-10-28T08:08:45.932Z,97.6
2017-10-28T08:09:47.463Z,98.2
2017-10-28T08:10:49.070Z,97.9
2017-10-28T08:11:50.757Z,97.4
2017-10-28T08:12:52.305Z,98.2
2017-10-28T08:13:53.845Z,98.4
2017-10-28T08:14:55.891Z,98.2
2017-10-28T08:15:57.996Z,97.5
2017-10-28T08:16:59.571Z,98.4
2017-10-28T08:18:01.220Z,98.3
2017-10-28T08:19:03.700Z,98.2
2017-10-28T08:20:06.484Z,97.9
2017-10-28T08:21:08.088Z,97.4
2017-10-28T08:22:09.679Z,98.2
2017-10-28T08:23:11.285Z,97.8
2017-10-28T08:24:13.627Z,97.4
2017-10-28T08:25:15.200Z,97.5
2017-10-28T08:26:17.097Z,97.1
2017-10-28T08:27:18.640Z,96.9
2017-10-28T08:28:20.161Z,97.0
2017-10-28T08:29:21.735Z,96.5
2017-10-28T08:30:23.455Z,96.8
2017-10-28T08:31:25.556Z,96.6
2017-10-28T08:32:27.341Z,97.0
2017-10-28T08:33:29.137Z,97.0
2017-10-28T08:34:31.004Z,96.8
2017-10-28T08:35:33.114Z,96.5
2017-10-28T08:36:35.333Z,97.0
2017-10-28T08:37:37.114Z,96.2
2017-10-28T08:38:38.796Z,97.0
2017-10-28T08:39:40.564Z,96.0
2017-10-28T08:40:42.110Z,96.8
2017-10-28T08:41:43.856Z,96.5
2017-10-28T08:42:45.757Z,97.2
2017-10-28T08:43:47.411Z,96.6
2017-10-28T08:44:48.990Z,96.4
2017-10-28T08:45:50.711Z,96.8
2017-10-28T08:46:52.267Z,96.5
2017-10-28T08:47:54.050Z,96.8
2017-10-28T08:48:55.879Z,96.1
2017-10-28T08:49:58.760Z,96.8
2017-10-28T08:51:00.339Z,96.0
2017-10-28T08:52:03.143Z,96.0
2017-10-28T08:53:05.702Z,96.5
2017-10-28T08:54:07.401Z,95.6
2017-10-28T08:55:08.945Z,96.1
2017-10-28T08:56:11.875Z,95.6
2017-10-28T08:57:13.470Z,96.1
2017-10-28T08:58:15.392Z,95.5
2017-10-28T08:59:17.141Z,94.9
2017-10-28T09:00:18.727Z,94.6
2017-10-28T09:01:20.496Z,94.6
2017-10-28T09:02:22.392Z,94.6
2017-10-28T09:03:24.867Z,95.0
2017-10-28T09:04:26.461Z,95.0
2017-10-28T09:05:27.980Z,94.5
2017-10-28T09:06:29.623Z,94.3
2017-10-28T09:07:31.215Z,94.1
2017-10-28T09:08:32.782Z,93.7
2017-10-28T09:09:34.434Z,93.3
2017-10-28T09:10:36.001Z,93.3
2017-10-28T09:11:37.508Z,92.8
2017-10-28T09:12:39.108Z,92.7
2017-10-28T09:13:40.640Z,92.4
2017-10-28T09:14:42.301Z,92.6
2017-10-28T09:15:43.819Z,92.9
2017-10-28T09:16:45.441Z,92.9
2017-10-28T09:17:46.980Z,93.1
2017-10-28T09:18:48.606Z,93.2
2017-10-28T09:19:50.148Z,92.7
2017-10-28T09:20:51.724Z,92.2
2017-10-28T09:21:53.257Z,92.1
2017-10-28T09:22:54.870Z,92.5
2017-10-28T09:23:56.629Z,92.8
2017-10-28T09:24:58.283Z,92.1
2017-10-28T09:25:59.850Z,92.5
2017-10-28T09:27:01.377Z,92.8
2017-10-28T09:28:02.907Z,92.1
2017-10-28T09:29:04.575Z,91.7
2017-10-28T09:30:06.221Z,92.1
2017-10-28T09:31:07.854Z,91.8
2017-10-28T09:32:09.373Z,91.6
2017-10-28T09:33:10.977Z,92.2
2017-10-28T09:34:12.538Z,92.2
2017-10-28T09:35:14.183Z,92.0
2017-10-28T09:36:15.730Z,91.7
2017-10-28T09:37:17.490Z,91.7
2017-10-28T09:38:18.952Z,92.3
2017-10-28T09:39:20.672Z,91.9
2017-10-28T09:40:22.361Z,91.7
2017-10-28T09:41:23.977Z,92.2
2017-10-28T09:42:25.553Z,92.1
2017-10-28T09:43:27.231Z,92.5
2017-10-28T09:44:28.776Z,92.0
2017-10-28T09:45:30.419Z,92.2
2017-10-28T09:46:31.944Z,92.3
2017-10-28T09:47:33.735Z,92.7
2017-10-28T09:48:35.373Z,91.8
2017-10-28T09:49:37.126Z,92.2
2017-10-28T09:50:38.813Z,92.0
2017-10-28T09:51:40.462Z,92.2
2017-10-28T09:52:42.035Z,91.9
2017-10-28T09:53:43.744Z,92.5
2017-10-28T09:54:45.356Z,92.0
2017-10-28T09:55:47.027Z,93.0
2017-10-28T09:56:48.559Z,92.6
2017-10-28T09:57:50.305Z,92.2
2017-10-28T09:58:51.840Z,92.0
2017-10-28T09:59:53.485Z,92.1
2017-10-28T10:00:55.039Z,91.7
2017-10-28T10:01:56.727Z,91.8
2017-10-28T10:02:58.354Z,90.5
2017-10-28T10:03:59.960Z,91.0
2017-10-28T10:05:01.599Z,90.8
2017-10-28T10:06:03.248Z,90.4
2017-10-28T10:07:04.993Z,90.0
2017-10-28T10:08:06.696Z,89.4
2017-10-28T10:09:08.329Z,89.1
2017-10-28T10:10:10.028Z,89.2
2017-10-28T10:11:11.690Z,88.8
2017-10-28T10:12:13.272Z,89.3
2017-10-28T10:13:14.852Z,88.6
2017-10-28T10:14:16.511Z,88.2
2017-10-28T10:15:18.080Z,88.4
2017-10-28T10:16:19.652Z,88.2
2017-10-28T10:17:21.201Z,87.2
2017-10-28T10:18:22.824Z,86.7
2017-10-28T10:19:24.349Z,86.5
2017-10-28T10:20:25.975Z,86.0
2017-10-28T10:21:27.578Z,86.9
2017-10-28T10:22:30.248Z,86.1
2017-10-28T10:23:31.936Z,85.5
2017-10-28T10:24:33.623Z,85.4
2017-10-28T10:25:35.331Z,85.0
2017-10-28T10:26:38.604Z,84.6
2017-10-28T10:27:40.126Z,85.2
2017-10-28T10:28:41.806Z,85.5
2017-10-28T10:29:43.533Z,85.2
2017-10-28T10:30:45.409Z,84.4
2017-10-28T10:31:47.053Z,83.7
2017-10-28T10:32:48.733Z,84.3
2017-10-28T10:33:50.497Z,83.6
2017-10-28T10:34:52.109Z,84.0
2017-10-28T10:35:53.741Z,82.7
2017-10-28T10:36:55.407Z,83.5
2017-10-28T10:37:57.595Z,83.4
2017-10-28T10:38:59.345Z,84.2
2017-10-28T10:40:01.832Z,83.4
2017-10-28T10:41:03.501Z,83.2
2017-10-28T10:42:05.279Z,83.3
2017-10-28T10:43:07.076Z,83.6
2017-10-28T10:44:08.788Z,82.5
2017-10-28T10:45:10.657Z,82.6
2017-10-28T10:46:12.216Z,81.4
2017-10-28T10:47:13.867Z,82.2
2017-10-28T10:48:15.427Z,81.3
2017-10-28T10:49:18.142Z,81.6
2017-10-28T10:50:19.691Z,81.0
2017-10-28T10:51:21.530Z,82.2
2017-10-28T10:52:23.091Z,81.4
2017-10-28T10:53:24.920Z,80.6
2017-10-28T10:54:26.617Z,80.8
2017-10-28T10:55:28.222Z,81.0
2017-10-28T10:56:29.911Z,81.0
2017-10-28T10:57:31.478Z,81.2
2017-10-28T10:58:33.271Z,81.4
2017-10-28T10:59:34.928Z,81.3
2017-10-28T11:00:36.512Z,81.6
2017-10-28T11:01:38.236Z,81.1
2017-10-28T11:02:40.159Z,80.4
2017-10-28T11:03:41.985Z,80.4
2017-10-28T11:04:43.559Z,79.7
2017-10-28T11:05:45.183Z,80.1
2017-10-28T11:06:46.790Z,79.7
2017-10-28T11:07:48.532Z,79.0
2017-10-28T11:08:50.146Z,78.4
2017-10-28T11:09:51.949Z,79.1
2017-10-28T11:10:53.484Z,79.2
2017-10-28T11:11:54.998Z,79.4
2017-10-28T11:12:56.617Z,78.2
2017-10-28T11:13:58.220Z,78.2
2017-10-28T11:15:00.177Z,78.5
2017-10-28T11:16:02.024Z,78.7
2017-10-28T11:17:03.737Z,78.2
2017-10-28T11:18:05.320Z,78.1
2017-10-28T11:19:06.941Z,78.2
2017-10-28T11:20:08.492Z,78.2
2017-10-28T11:21:09.993Z,78.3
2017-10-28T11:22:11.674Z,78.1
2017-10-28T11:23:13.445Z,78.4
2017-10-28T11:24:15.102Z,78.4
2017-10-28T11:25:16.642Z,78.1
2017-10-28T11:26:18.269Z,78.3
2017-10-28T11:27:19.806Z,78.2
2017-10-28T11:28:22.598Z,78.9
2017-10-28T11:29:24.161Z,79.8
2017-10-28T11:30:27.308Z,80.0
2017-10-28T11:31:28.831Z,79.2
2017-10-28T11:32:30.667Z,78.5
2017-10-28T11:33:32.411Z,78.3
2017-10-28T11:34:34.043Z,77.6
2017-10-28T11:35:35.643Z,76.7
2017-10-28T11:36:37.268Z,77.2
2017-10-28T11:37:38.821Z,76.8
2017-10-28T11:38:40.616Z,77.1
2017-10-28T11:39:42.154Z,76.5
2017-10-28T11:40:43.896Z,77.9
2017-10-28T11:41:45.361Z,77.8
2017-10-28T11:42:46.958Z,77.5
2017-10-28T11:43:48.455Z,78.4
2017-10-28T11:44:50.186Z,78.3
2017-10-28T11:45:51.766Z,78.1
2017-10-28T11:46:53.429Z,77.5
2017-10-28T11:47:55.118Z,78.3
2017-10-28T11:48:56.952Z,78.3
2017-10-28T11:49:58.489Z,77.7
2017-10-28T11:51:00.150Z,77.6
2017-10-28T11:52:01.994Z,77.7
2017-10-28T11:53:03.958Z,77.7
2017-10-28T11:54:05.629Z,78.1
2017-10-28T11:55:07.455Z,78.0
2017-10-28T11:56:09.001Z,78.9
2017-10-28T11:57:10.654Z,78.2
2017-10-28T11:58:12.432Z,78.1
2017-10-28T11:59:14.112Z,78.4
2017-10-28T12:00:15.935Z,78.3
2017-10-28T12:01:17.662Z,78.1
2017-10-28T12:02:19.257Z,78.2
2017-10-28T12:03:20.916Z,78.2
2017-10-28T12:04:22.591Z,78.3
2017-10-28T12:05:24.267Z,77.6
2017-10-28T12:06:26.001Z,77.3
2017-10-28T12:07:27.685Z,78.3
2017-10-28T12:08:29.715Z,78.0
2017-10-28T12:09:31.300Z,78.3
2017-10-28T12:10:32.976Z,78.2
2017-10-28T12:11:34.724Z,78.1
2017-10-28T12:12:36.251Z,78.0
2017-10-28T12:13:38.399Z,78.4
2017-10-28T12:14:40.283Z,76.8
2017-10-28T12:15:42.226Z,76.9
2017-10-28T12:16:43.834Z,76.0
2017-10-28T12:17:45.477Z,76.8
2017-10-28T12:18:47.103Z,76.7
2017-10-28T12:19:48.734Z,76.1
2017-10-28T12:20:50.493Z,76.7
2017-10-28T12:21:52.118Z,76.7
2017-10-28T12:22:53.714Z,76.9
2017-10-28T12:23:55.334Z,76.9
2017-10-28T12:24:56.809Z,77.0
2017-10-28T12:25:58.412Z,76.8
2017-10-28T12:27:00.031Z,76.8
2017-10-28T12:28:01.673Z,76.1
2017-10-28T12:29:03.542Z,76.3
2017-10-28T12:30:05.308Z,76.5
2017-10-28T12:31:06.892Z,76.1
2017-10-28T12:32:08.611Z,77.0
2017-10-28T12:33:10.306Z,77.2
2017-10-28T12:34:11.989Z,76.6
2017-10-28T12:35:13.707Z,77.1
2017-10-28T12:36:15.454Z,77.4
2017-10-28T12:37:17.126Z,77.0
2017-10-28T12:38:18.611Z,76.6
2017-10-28T12:39:20.158Z,76.1
2017-10-28T12:40:22.046Z,76.0
2017-10-28T12:41:23.783Z,76.2
2017-10-28T12:42:25.697Z,76.4
2017-10-28T12:43:27.446Z,76.3
2017-10-28T12:44:29.113Z,77.5
2017-10-28T12:45:30.706Z,76.9
2017-10-28T12:46:33.538Z,76.7
2017-10-28T12:47:35.129Z,76.2
2017-10-28T12:48:36.700Z,76.5
2017-10-28T12:49:38.340Z,76.5
2017-10-28T12:50:39.919Z,75.9
2017-10-28T12:51:41.425Z,76.1
2017-10-28T12:52:43.110Z,76.3
2017-10-28T12:53:44.756Z,76.5
2017-10-28T12:54:46.353Z,76.0
2017-10-28T12:55:47.858Z,77.0
2017-10-28T12:56:49.529Z,76.1
2017-10-28T12:57:51.054Z,77.3
2017-10-28T12:58:54.744Z,76.1
2017-10-28T12:59:56.410Z,76.2
2017-10-28T13:00:58.115Z,76.6
2017-10-28T13:01:59.741Z,76.1
2017-10-28T13:03:01.396Z,76.6
2017-10-28T13:04:03.071Z,75.3
2017-10-28T13:05:04.832Z,75.3
2017-10-28T13:06:06.665Z,76.4
2017-10-28T13:07:08.353Z,76.0
2017-10-28T13:08:10.079Z,75.5
2017-10-28T13:09:11.675Z,75.0
2017-10-28T13:10:13.201Z,75.1
2017-10-28T13:11:15.904Z,75.9
2017-10-28T13:12:17.612Z,76.2
2017-10-28T13:13:19.892Z,76.0
2017-10-28T13:14:21.497Z,75.1
2017-10-28T13:15:23.059Z,75.0
2017-10-28T13:16:24.692Z,75.9
2017-10-28T13:17:26.291Z,76.2
2017-10-28T13:18:27.871Z,75.7
2017-10-28T13:19:29.587Z,76.1
2017-10-28T13:20:31.075Z,76.2
2017-10-28T13:21:32.738Z,75.7
2017-10-28T13:22:34.330Z,75.2
2017-10-28T13:23:36.547Z,75.9
2017-10-28T13:24:38.179Z,75.9
2017-10-28T13:25:39.955Z,76.1
2017-10-28T13:26:41.636Z,75.8
2017-10-28T13:27:43.414Z,76.1
2017-10-28T13:28:45.172Z,76.4
2017-10-28T13:29:47.338Z,76.1